This is the latest recevied weather packets stored in our database for station/object K7FLA. If no packets are shown the sender has not sent any weather packets the latest 10 day(s).
| Time | Temp. | Humidity | Pressure | Rain* | Wind** | Luminosity | Snow |
|---|---|---|---|---|---|---|---|
| 1778085867 | 20.56° C | 43% | 1098.5 hPa | 0 mm | - | 604 W/m² | - |
| 1778085560 | 21.11° C | 43% | 1098.5 hPa | 0 mm | - | 589 W/m² | - |
| 1778085260 | 21.11° C | 43% | 1098.5 hPa | 0 mm | - | 574 W/m² | - |
| 1778084955 | 21.11° C | 41% | 1098.4 hPa | 0 mm | - | 561 W/m² | - |
| 1778084653 | 21.11° C | 44% | 1098.7 hPa | 0 mm | - | 544 W/m² | - |
| 1778084350 | 21.11° C | 43% | 1098.4 hPa | 0 mm | - | 528 W/m² | - |
| 1778084048 | 21.11° C | 43% | 1098.4 hPa | 0 mm | - | 512 W/m² | - |
| 1778083745 | 21.11° C | 42% | 1098.2 hPa | 0 mm | - | 495 W/m² | - |
| 1778083442 | 21.11° C | 44% | 1098.2 hPa | 0 mm | - | 479 W/m² | - |
| 1778083140 | 20.56° C | 48% | 1098.2 hPa | 0 mm | - | 462 W/m² | - |
| 1778082837 | 20.56° C | 46% | 1098.2 hPa | 0 mm | - | 443 W/m² | - |
| 1778081714 | 18.89° C | 50% | 1098.2 hPa | 0 mm | - | 383 W/m² | - |
| 1778081411 | 18.89° C | 48% | 1098.2 hPa | 0 mm | - | 363 W/m² | - |
| 1778081108 | 18.89° C | 49% | 1098.3 hPa | 0 mm | - | 345 W/m² | - |
| 1778080806 | 18.89° C | 49% | 1098.1 hPa | 0 mm | - | 329 W/m² | - |
| 1778080503 | 18.89° C | 51% | 1098.2 hPa | 0 mm | - | 312 W/m² | - |
| 1778080201 | 18.33° C | 52% | 1098.2 hPa | 0 mm | - | 294 W/m² | - |
| 1778079897 | 17.78° C | 59% | 1098.1 hPa | 0 mm | - | 271 W/m² | - |
| 1778079594 | 16.67° C | 56% | 1098.2 hPa | 0 mm | - | 217 W/m² | - |
| 1778079290 | 16.67° C | 62% | 1098 hPa | 0 mm | - | 177 W/m² | - |
| 1778078988 | 16.11° C | 63% | 1098.3 hPa | 0 mm | - | 150 W/m² | - |
| 1778078684 | 16.11° C | 65% | 1098.2 hPa | 0 mm | - | 130 W/m² | - |
| 1778078383 | 15° C | 67% | 1098.3 hPa | 0 mm | - | 116 W/m² | - |
| 1778078079 | 15° C | 69% | 1098.3 hPa | 0 mm | - | 102 W/m² | - |
| 1778077778 | 14.44° C | 72% | 1098.2 hPa | 0 mm | - | 91 W/m² | - |
* Rain latest hour (hover to see other rain measurements)
** Current wind speed in m/s (hover to see current wind gust speed)